Time;durP1;ratioP1;P1;durP2;ratioP2;P2;SDS_P1;SDS_P2;PMS_P1;PMS_P2;Temp;Humidity;BMP_temperature;BMP_pressure;BME280_temperature;BME280_humidity;BME280_pressure;Samples;Min_cycle;Max_cycle;Signal;HPM_P1;HPM_P2
2021/05/20 00:02:52;;;;;;;3.20;2.00;;;;;;;;;;10363555;28;20079;-67
2021/05/20 00:07:50;;;;;;;2.55;1.52;;;;;;;;;;10362899;28;20539;-66
2021/05/20 00:12:48;;;;;;;2.65;1.83;;;;;;;;;;10361979;28;20523;-66
2021/05/20 00:17:46;;;;;;;2.45;1.77;;;;;;;;;;10361718;28;20072;-66
2021/05/20 00:22:44;;;;;;;2.58;1.77;;;;;;;;;;10362175;28;20055;-66
2021/05/20 00:27:42;;;;;;;4.47;2.00;;;;;;;;;;10361789;28;20516;-66
2021/05/20 00:32:42;;;;;;;4.85;2.20;;;;;;;;;;10362048;28;20056;-67
2021/05/20 00:37:40;;;;;;;3.33;1.80;;;;;;;;;;10361973;28;20079;-66
2021/05/20 00:42:38;;;;;;;4.95;2.78;;;;;;;;;;10361921;28;20087;-67
2021/05/20 00:47:36;;;;;;;3.60;1.92;;;;;;;;;;10362826;28;20040;-67
2021/05/20 00:52:35;;;;;;;2.28;1.85;;;;;;;;;;10361241;28;20044;-66
2021/05/20 00:57:33;;;;;;;4.95;1.70;;;;;;;;;;10359848;28;20567;-66
2021/05/20 01:02:32;;;;;;;1.75;1.58;;;;;;;;;;10361160;28;20047;-67
2021/05/20 01:07:29;;;;;;;3.42;2.17;;;;;;;;;;10361475;28;20496;-66
2021/05/20 01:12:28;;;;;;;2.45;1.60;;;;;;;;;;10360717;28;20091;-67
2021/05/20 01:17:26;;;;;;;2.95;1.65;;;;;;;;;;10342342;28;20393;-66
2021/05/20 01:22:25;;;;;;;3.58;1.90;;;;;;;;;;10361331;28;20055;-66
2021/05/20 01:27:24;;;;;;;4.70;1.73;;;;;;;;;;10360800;28;20076;-66
2021/05/20 01:32:22;;;;;;;4.03;1.98;;;;;;;;;;10360750;28;20070;-66
2021/05/20 01:37:20;;;;;;;3.50;2.33;;;;;;;;;;10360411;28;20037;-67
2021/05/20 01:42:19;;;;;;;3.28;1.90;;;;;;;;;;10359132;28;20060;-66
2021/05/20 01:47:17;;;;;;;4.00;2.00;;;;;;;;;;10359094;28;20460;-66
2021/05/20 01:52:15;;;;;;;2.90;2.42;;;;;;;;;;10359225;28;20051;-66
2021/05/20 01:57:13;;;;;;;4.40;2.17;;;;;;;;;;10340446;28;20048;-68
2021/05/20 02:02:12;;;;;;;6.32;2.13;;;;;;;;;;10358157;28;20075;-66
2021/05/20 02:07:10;;;;;;;2.80;2.10;;;;;;;;;;10357772;28;20075;-66
2021/05/20 02:12:08;;;;;;;5.70;2.15;;;;;;;;;;10358713;28;20396;-67
2021/05/20 02:17:06;;;;;;;3.53;2.33;;;;;;;;;;10358885;28;20424;-66
2021/05/20 02:22:05;;;;;;;3.45;2.22;;;;;;;;;;10358485;28;20055;-67
2021/05/20 02:27:03;;;;;;;4.68;3.33;;;;;;;;;;10358626;28;20075;-66
2021/05/20 02:32:01;;;;;;;6.70;2.72;;;;;;;;;;10358045;28;20484;-66
2021/05/20 02:36:59;;;;;;;7.70;2.70;;;;;;;;;;10357088;28;20047;-67
2021/05/20 02:41:57;;;;;;;3.55;2.47;;;;;;;;;;10357183;28;20044;-66
2021/05/20 02:46:56;;;;;;;5.35;2.90;;;;;;;;;;10355680;28;20542;-66
2021/05/20 02:51:53;;;;;;;5.50;3.13;;;;;;;;;;10355794;28;20052;-66
2021/05/20 02:56:51;;;;;;;8.02;3.83;;;;;;;;;;10357011;28;20508;-66
2021/05/20 03:01:50;;;;;;;4.60;3.17;;;;;;;;;;10356660;28;20048;-66
2021/05/20 03:06:48;;;;;;;6.88;3.67;;;;;;;;;;10348125;28;20064;-66
2021/05/20 03:11:46;;;;;;;6.25;3.40;;;;;;;;;;10315325;28;20068;-67
2021/05/20 03:16:43;;;;;;;5.15;3.83;;;;;;;;;;10315954;28;20052;-66
2021/05/20 03:21:42;;;;;;;6.70;4.50;;;;;;;;;;10328108;28;20101;-66
2021/05/20 03:26:42;;;;;;;6.68;3.92;;;;;;;;;;10362842;28;20063;-66
2021/05/20 03:31:40;;;;;;;5.05;3.70;;;;;;;;;;10356458;28;20074;-65
2021/05/20 03:36:38;;;;;;;4.10;3.70;;;;;;;;;;10361638;28;20455;-65
2021/05/20 03:41:37;;;;;;;7.05;3.75;;;;;;;;;;10356170;28;20079;-65
2021/05/20 03:46:35;;;;;;;4.63;3.60;;;;;;;;;;10359526;28;20488;-65
2021/05/20 03:51:32;;;;;;;7.03;3.55;;;;;;;;;;10360600;28;20201;-65
2021/05/20 03:56:30;;;;;;;5.28;3.90;;;;;;;;;;10360175;28;20075;-65
2021/05/20 04:01:29;;;;;;;7.63;4.80;;;;;;;;;;10363007;28;20527;-65
2021/05/20 04:06:27;;;;;;;7.03;3.58;;;;;;;;;;10363433;28;20105;-64
2021/05/20 04:11:25;;;;;;;5.70;3.60;;;;;;;;;;10363002;28;20087;-64
2021/05/20 04:16:25;;;;;;;8.18;6.43;;;;;;;;;;10362815;28;20043;-65
2021/05/20 04:21:24;;;;;;;4.57;3.65;;;;;;;;;;10363441;28;20044;-64
2021/05/20 04:26:22;;;;;;;5.68;4.05;;;;;;;;;;10363041;28;20051;-66
2021/05/20 04:31:20;;;;;;;7.70;3.08;;;;;;;;;;10362740;28;20330;-66
2021/05/20 04:36:17;;;;;;;6.22;3.53;;;;;;;;;;10362947;28;20036;-66
2021/05/20 04:41:16;;;;;;;10.00;5.43;;;;;;;;;;10362542;28;20059;-65
2021/05/20 04:46:14;;;;;;;5.40;3.42;;;;;;;;;;10362539;28;20079;-66
2021/05/20 04:51:12;;;;;;;4.38;3.25;;;;;;;;;;10360513;28;20068;-67
2021/05/20 04:56:10;;;;;;;2.95;2.75;;;;;;;;;;10357097;28;20091;-66
2021/05/20 05:01:09;;;;;;;4.50;3.47;;;;;;;;;;10357870;28;20072;-68
2021/05/20 05:06:07;;;;;;;6.78;4.70;;;;;;;;;;10359161;28;20497;-67
2021/05/20 05:11:04;;;;;;;6.63;5.85;;;;;;;;;;10360818;28;20043;-67
2021/05/20 05:16:02;;;;;;;4.80;4.18;;;;;;;;;;10360607;28;20047;-67
2021/05/20 05:21:02;;;;;;;3.55;3.25;;;;;;;;;;10360079;28;20458;-67
2021/05/20 05:26:00;;;;;;;5.03;3.47;;;;;;;;;;10359839;28;20083;-66
2021/05/20 05:30:58;;;;;;;3.53;3.13;;;;;;;;;;10360569;28;20047;-67
2021/05/20 05:35:56;;;;;;;5.75;3.67;;;;;;;;;;10358881;28;20076;-66
2021/05/20 05:40:55;;;;;;;3.40;2.97;;;;;;;;;;10359191;28;20048;-66
2021/05/20 05:45:53;;;;;;;4.30;2.60;;;;;;;;;;10359470;28;20087;-67
2021/05/20 05:50:53;;;;;;;3.30;2.90;;;;;;;;;;10359814;28;20036;-67
2021/05/20 05:56:00;;;;;;;5.03;3.53;;;;;;;;;;10358774;28;20048;-69
2021/05/20 06:00:58;;;;;;;4.53;3.42;;;;;;;;;;10359486;28;20048;-66
2021/05/20 06:05:56;;;;;;;3.97;3.40;;;;;;;;;;10340099;28;20051;-66
2021/05/20 06:10:54;;;;;;;6.28;3.92;;;;;;;;;;10358345;28;20048;-67
2021/05/20 06:15:53;;;;;;;6.28;4.20;;;;;;;;;;10359243;28;20378;-66
2021/05/20 06:20:50;;;;;;;7.22;4.30;;;;;;;;;;10358933;28;20068;-66
2021/05/20 06:25:48;;;;;;;3.90;3.55;;;;;;;;;;10339406;28;20091;-67
2021/05/20 06:30:46;;;;;;;8.23;4.15;;;;;;;;;;10358354;28;20063;-66
2021/05/20 06:35:45;;;;;;;5.60;3.92;;;;;;;;;;10358288;28;20039;-66
2021/05/20 06:40:43;;;;;;;3.88;2.70;;;;;;;;;;10356416;28;20052;-66
2021/05/20 06:45:41;;;;;;;5.10;2.63;;;;;;;;;;10357339;28;20079;-67
2021/05/20 06:50:38;;;;;;;6.00;2.92;;;;;;;;;;10357359;28;20044;-67
2021/05/20 06:55:37;;;;;;;5.65;2.90;;;;;;;;;;10357969;28;20047;-67
2021/05/20 07:00:36;;;;;;;4.25;3.17;;;;;;;;;;10356992;28;20105;-67
2021/05/20 07:05:34;;;;;;;4.10;3.70;;;;;;;;;;10338750;28;20048;-67
2021/05/20 07:10:32;;;;;;;4.03;3.28;;;;;;;;;;10356485;28;20048;-67
2021/05/20 07:15:30;;;;;;;5.53;3.60;;;;;;;;;;10356949;28;20070;-67
2021/05/20 07:20:28;;;;;;;4.40;2.72;;;;;;;;;;10356172;28;20047;-67
2021/05/20 07:25:26;;;;;;;4.03;3.63;;;;;;;;;;10356824;28;20080;-66
2021/05/20 07:30:24;;;;;;;6.32;4.38;;;;;;;;;;10338611;28;20059;-67
2021/05/20 07:35:23;;;;;;;4.78;2.83;;;;;;;;;;10356176;28;20417;-66
2021/05/20 07:40:21;;;;;;;4.28;3.17;;;;;;;;;;10356721;28;20052;-66
2021/05/20 07:45:19;;;;;;;4.88;2.58;;;;;;;;;;10356338;28;20086;-66
2021/05/20 07:50:17;;;;;;;4.10;2.10;;;;;;;;;;10356674;28;20040;-66
2021/05/20 07:55:15;;;;;;;2.90;2.50;;;;;;;;;;10356164;28;20044;-67
2021/05/20 08:00:14;;;;;;;6.57;3.30;;;;;;;;;;10356353;28;20044;-68
2021/05/20 08:05:20;;;;;;;6.03;3.00;;;;;;;;;;10360003;28;20091;-68
2021/05/20 08:15:35;;;;;;;4.57;2.92;;;;;;;;;;10363106;28;20044;-68
2021/05/20 08:20:32;;;;;;;6.93;3.78;;;;;;;;;;10363334;28;20079;-68
2021/05/20 08:25:31;;;;;;;3.85;3.13;;;;;;;;;;10362392;28;20076;-68
2021/05/20 08:30:29;;;;;;;4.03;3.38;;;;;;;;;;10362804;28;20374;-68
2021/05/20 08:35:28;;;;;;;6.18;3.10;;;;;;;;;;10362793;28;20074;-68
2021/05/20 08:40:26;;;;;;;3.33;2.70;;;;;;;;;;10361396;28;20094;-68
2021/05/20 08:45:26;;;;;;;5.32;3.30;;;;;;;;;;10343891;28;20508;-68
2021/05/20 08:50:25;;;;;;;7.05;3.00;;;;;;;;;;10361955;28;20040;-66
2021/05/20 08:55:23;;;;;;;5.10;3.17;;;;;;;;;;10361047;28;20055;-67
2021/05/20 09:00:22;;;;;;;2.58;2.38;;;;;;;;;;10360901;28;20047;-67
2021/05/20 09:05:21;;;;;;;4.68;2.40;;;;;;;;;;10361631;28;20082;-67
2021/05/20 09:10:21;;;;;;;2.63;2.42;;;;;;;;;;10360888;28;20511;-67
2021/05/20 09:15:20;;;;;;;3.25;2.92;;;;;;;;;;10359612;28;20118;-67
2021/05/20 09:20:19;;;;;;;4.00;2.90;;;;;;;;;;10342400;28;20055;-67
2021/05/20 09:25:18;;;;;;;4.93;3.17;;;;;;;;;;10359817;28;20090;-67
2021/05/20 09:30:18;;;;;;;6.68;4.65;;;;;;;;;;10359312;28;20076;-67
2021/05/20 09:35:17;;;;;;;4.18;2.97;;;;;;;;;;10359790;28;20048;-67
2021/05/20 09:40:15;;;;;;;3.58;3.08;;;;;;;;;;10359889;28;20091;-67
2021/05/20 09:45:16;;;;;;;3.47;2.13;;;;;;;;;;10358858;28;20055;-66
2021/05/20 09:50:15;;;;;;;3.40;2.40;;;;;;;;;;10359147;28;20044;-67
2021/05/20 09:55:31;;;;;;;3.58;2.60;;;;;;;;;;10358907;28;20080;-67
2021/05/20 10:00:30;;;;;;;5.30;2.88;;;;;;;;;;10357912;28;20043;-67
2021/05/20 10:05:30;;;;;;;3.60;2.10;;;;;;;;;;10340497;28;20052;-67
2021/05/20 10:10:28;;;;;;;4.20;2.20;;;;;;;;;;10359253;28;20485;-67
2021/05/20 10:15:26;;;;;;;4.28;1.90;;;;;;;;;;10357518;28;20044;-68
2021/05/20 10:20:27;;;;;;;3.90;2.70;;;;;;;;;;10358904;28;20422;-68
2021/05/20 10:25:25;;;;;;;7.53;3.85;;;;;;;;;;10357733;28;20047;-67
2021/05/20 10:30:24;;;;;;;12.93;5.97;;;;;;;;;;10357253;28;20436;-67
2021/05/20 10:35:22;;;;;;;7.13;5.00;;;;;;;;;;10358230;28;20044;-67
2021/05/20 10:40:31;;;;;;;6.78;4.35;;;;;;;;;;10357807;28;20504;-67
2021/05/20 10:45:29;;;;;;;6.35;4.28;;;;;;;;;;10356876;28;20102;-67
2021/05/20 10:50:52;;;;;;;7.85;2.55;;;;;;;;;;10357924;28;20040;-66
2021/05/20 10:55:51;;;;;;;3.05;1.83;;;;;;;;;;10356993;28;20090;-67
2021/05/20 11:00:48;;;;;;;4.93;3.53;;;;;;;;;;10357699;28;20072;-67
2021/05/20 11:05:55;;;;;;;18.55;12.10;;;;;;;;;;10357114;28;20082;-67
2021/05/20 11:10:54;;;;;;;5.30;2.88;;;;;;;;;;10357719;28;20453;-66
2021/05/20 11:16:07;;;;;;;5.43;3.20;;;;;;;;;;10356555;28;20055;-67
2021/05/20 11:21:05;;;;;;;4.05;3.65;;;;;;;;;;10338813;28;20044;-67
2021/05/20 11:26:20;;;;;;;5.10;4.65;;;;;;;;;;10356702;28;20095;-67
2021/05/20 11:31:19;;;;;;;4.30;3.92;;;;;;;;;;10357408;28;20052;-67
2021/05/20 11:36:18;;;;;;;6.15;5.53;;;;;;;;;;10356671;28;20046;-67
2021/05/20 11:41:17;;;;;;;4.82;4.32;;;;;;;;;;10362348;28;20040;-67
2021/05/20 11:46:22;;;;;;;6.80;6.20;;;;;;;;;;10363961;28;20102;-66
2021/05/20 11:51:35;;;;;;;8.48;5.53;;;;;;;;;;10364209;28;20052;-67
2021/05/20 11:56:36;;;;;;;6.68;6.07;;;;;;;;;;10364120;28;20075;-68
2021/05/20 12:01:36;;;;;;;8.82;6.55;;;;;;;;;;10364420;28;20075;-66
2021/05/20 12:06:35;;;;;;;10.88;9.88;;;;;;;;;;10363318;28;20076;-66
2021/05/20 12:11:34;;;;;;;9.95;9.05;;;;;;;;;;10363350;28;20408;-68
2021/05/20 12:16:33;;;;;;;7.25;6.55;;;;;;;;;;10362849;28;20102;-68
2021/05/20 12:21:32;;;;;;;7.75;6.85;;;;;;;;;;10362826;28;20078;-68
2021/05/20 12:26:30;;;;;;;6.85;6.25;;;;;;;;;;10362815;28;20113;-68
2021/05/20 12:31:28;;;;;;;9.60;7.55;;;;;;;;;;10362482;28;20048;-68
2021/05/20 12:36:30;;;;;;;6.55;5.95;;;;;;;;;;10362892;28;20071;-67
2021/05/20 12:41:36;;;;;;;8.48;5.75;;;;;;;;;;10362350;28;20075;-68
2021/05/20 12:46:34;;;;;;;9.10;6.00;;;;;;;;;;10361721;28;20086;-67
2021/05/20 12:51:32;;;;;;;5.40;4.97;;;;;;;;;;10361192;28;20082;-67
2021/05/20 12:56:30;;;;;;;6.30;5.72;;;;;;;;;;10362333;28;20420;-67
2021/05/20 13:01:35;;;;;;;5.45;5.05;;;;;;;;;;10361376;28;20059;-67
2021/05/20 13:06:32;;;;;;;5.90;5.03;;;;;;;;;;10359789;28;20087;-67
2021/05/20 13:11:32;;;;;;;5.45;5.05;;;;;;;;;;10361148;28;20075;-67
2021/05/20 13:16:36;;;;;;;5.57;5.07;;;;;;;;;;10360678;28;20051;-67
2021/05/20 13:26:51;;;;;;;7.00;5.45;;;;;;;;;;10360466;28;20076;-67
2021/05/20 13:31:50;;;;;;;6.65;6.07;;;;;;;;;;10359937;28;20066;-68
2021/05/20 13:36:48;;;;;;;7.85;6.82;;;;;;;;;;10359813;28;20036;-68
2021/05/20 13:41:46;;;;;;;7.10;6.32;;;;;;;;;;10359715;28;20059;-67
2021/05/20 13:46:46;;;;;;;6.85;6.15;;;;;;;;;;10359560;28;20075;-68
2021/05/20 13:51:45;;;;;;;9.02;6.82;;;;;;;;;;10359226;28;20070;-68
2021/05/20 13:56:43;;;;;;;5.38;4.90;;;;;;;;;;10359475;28;20066;-69
2021/05/20 14:01:44;;;;;;;4.18;3.75;;;;;;;;;;10359229;28;20047;-67
2021/05/20 14:06:42;;;;;;;5.95;4.07;;;;;;;;;;10359014;28;20110;-67
2021/05/20 14:11:41;;;;;;;6.07;4.95;;;;;;;;;;10358608;28;20036;-67
2021/05/20 14:16:39;;;;;;;5.65;4.13;;;;;;;;;;10359105;28;20048;-67
2021/05/20 14:21:37;;;;;;;4.35;3.95;;;;;;;;;;10358410;28;20052;-66
2021/05/20 14:26:34;;;;;;;4.45;3.78;;;;;;;;;;10357352;28;20072;-66
2021/05/20 14:31:33;;;;;;;7.57;5.95;;;;;;;;;;10358055;28;20051;-66
2021/05/20 14:36:31;;;;;;;5.00;4.35;;;;;;;;;;10357689;28;20528;-66
2021/05/20 14:41:31;;;;;;;6.30;4.60;;;;;;;;;;10357401;28;20091;-66
2021/05/20 14:46:29;;;;;;;4.95;4.55;;;;;;;;;;10358082;28;20052;-66
2021/05/20 14:51:32;;;;;;;4.65;4.25;;;;;;;;;;10354600;28;20078;-67
2021/05/20 14:56:33;;;;;;;4.50;4.03;;;;;;;;;;10354827;28;20068;-66
2021/05/20 15:06:48;;;;;;;8.00;5.10;;;;;;;;;;10355095;28;20086;-66
2021/05/20 15:11:50;;;;;;;4.53;4.05;;;;;;;;;;10357844;28;20040;-67
2021/05/20 15:17:00;;;;;;;5.63;5.13;;;;;;;;;;10363732;28;20075;-66
2021/05/20 15:21:58;;;;;;;8.20;5.95;;;;;;;;;;10355968;28;20048;-67
2021/05/20 15:26:56;;;;;;;5.60;4.72;;;;;;;;;;10365834;28;20083;-67
2021/05/20 15:31:58;;;;;;;5.30;4.88;;;;;;;;;;10364534;28;20040;-66
2021/05/20 15:36:57;;;;;;;5.40;4.72;;;;;;;;;;10363307;28;20079;-67
2021/05/20 15:41:56;;;;;;;5.93;4.25;;;;;;;;;;10353281;28;20166;-65
2021/05/20 15:46:57;;;;;;;5.43;4.93;;;;;;;;;;10342006;28;20068;-66
2021/05/20 15:51:55;;;;;;;4.57;4.13;;;;;;;;;;10358549;28;20076;-66
2021/05/20 15:56:57;;;;;;;4.78;4.15;;;;;;;;;;10358433;28;20076;-66
2021/05/20 16:01:55;;;;;;;6.22;4.65;;;;;;;;;;10362978;28;20489;-68
2021/05/20 16:07:02;;;;;;;5.35;4.90;;;;;;;;;;10360445;28;20068;-65
2021/05/20 16:12:11;;;;;;;6.60;4.72;;;;;;;;;;10353940;28;20086;-67
2021/05/20 16:17:09;;;;;;;5.50;5.00;;;;;;;;;;10355768;28;20083;-66
2021/05/20 16:22:08;;;;;;;5.45;4.85;;;;;;;;;;10355517;28;20134;-68
2021/05/20 16:37:49;;;;;;;7.25;6.55;;;;;;;;;;10320432;28;20045;-66
2021/05/20 16:42:48;;;;;;;7.90;6.70;;;;;;;;;;10352139;28;20095;-67
2021/05/20 16:47:46;;;;;;;6.22;5.72;;;;;;;;;;10361679;28;20532;-66
2021/05/20 16:52:46;;;;;;;5.82;5.32;;;;;;;;;;10360697;28;20509;-67
2021/05/20 16:57:55;;;;;;;5.80;5.20;;;;;;;;;;10359625;28;20440;-67
2021/05/20 17:02:54;;;;;;;6.18;5.65;;;;;;;;;;10361253;28;20051;-67
2021/05/20 17:07:52;;;;;;;6.15;5.57;;;;;;;;;;10360593;28;20072;-67
2021/05/20 17:12:50;;;;;;;6.85;6.15;;;;;;;;;;10360325;28;20048;-67
2021/05/20 17:17:48;;;;;;;6.60;5.13;;;;;;;;;;10359958;28;20621;-67
2021/05/20 17:22:46;;;;;;;6.57;5.97;;;;;;;;;;10360215;28;20489;-67
2021/05/20 17:27:45;;;;;;;9.35;6.28;;;;;;;;;;10358417;28;20094;-67
2021/05/20 17:32:42;;;;;;;7.85;5.53;;;;;;;;;;10360305;28;20059;-68
2021/05/20 17:37:40;;;;;;;7.97;6.88;;;;;;;;;;10359051;28;20548;-68
2021/05/20 17:42:39;;;;;;;11.13;7.90;;;;;;;;;;10359262;28;20056;-67
2021/05/20 17:47:41;;;;;;;15.52;10.93;;;;;;;;;;10358815;28;20074;-68
2021/05/20 17:52:38;;;;;;;7.93;6.65;;;;;;;;;;10358816;28;20063;-67
2021/05/20 17:57:36;;;;;;;9.48;8.45;;;;;;;;;;10357621;28;20530;-67
2021/05/20 18:02:35;;;;;;;8.02;6.60;;;;;;;;;;10354832;28;20074;-68
2021/05/20 18:07:33;;;;;;;8.15;7.35;;;;;;;;;;10359096;28;20071;-68
2021/05/20 18:12:34;;;;;;;10.18;9.18;;;;;;;;;;10358706;28;20079;-67
2021/05/20 18:17:40;;;;;;;6.72;5.70;;;;;;;;;;10359037;28;20404;-67
2021/05/20 18:22:39;;;;;;;7.90;5.82;;;;;;;;;;10355142;28;20075;-67
2021/05/20 18:27:37;;;;;;;7.80;6.30;;;;;;;;;;10356251;28;20076;-66
2021/05/20 18:32:35;;;;;;;13.13;8.00;;;;;;;;;;10358361;28;20051;-66
2021/05/20 18:37:33;;;;;;;14.35;6.72;;;;;;;;;;10357046;28;20040;-67
2021/05/20 18:42:34;;;;;;;6.18;5.57;;;;;;;;;;10356205;28;20118;-67
2021/05/20 18:47:33;;;;;;;6.35;5.75;;;;;;;;;;10352820;28;20094;-67
2021/05/20 18:52:31;;;;;;;7.78;6.00;;;;;;;;;;10357359;28;20048;-67
2021/05/20 18:57:30;;;;;;;13.05;6.00;;;;;;;;;;10328751;28;20049;-67
2021/05/20 19:02:29;;;;;;;5.90;5.20;;;;;;;;;;10352623;28;20519;-67
2021/05/20 19:07:35;;;;;;;6.55;5.95;;;;;;;;;;10354148;28;20060;-67
2021/05/20 19:12:33;;;;;;;5.68;4.93;;;;;;;;;;10354753;28;20080;-67
2021/05/20 19:17:34;;;;;;;4.60;4.30;;;;;;;;;;10356439;28;20063;-67
2021/05/20 19:22:32;;;;;;;7.00;4.93;;;;;;;;;;10338423;28;20059;-68
2021/05/20 19:27:30;;;;;;;6.20;4.82;;;;;;;;;;10355679;28;20074;-67
2021/05/20 19:32:28;;;;;;;8.25;5.82;;;;;;;;;;10352841;28;20064;-65
2021/05/20 19:37:30;;;;;;;6.68;5.13;;;;;;;;;;10355907;28;20512;-68
2021/05/20 19:42:28;;;;;;;7.13;4.60;;;;;;;;;;10356398;28;20064;-66
2021/05/20 19:47:27;;;;;;;6.68;5.38;;;;;;;;;;10356500;28;20535;-66
2021/05/20 19:52:27;;;;;;;7.22;5.30;;;;;;;;;;10353853;28;20072;-66
2021/05/20 20:02:45;;;;;;;3.72;3.42;;;;;;;;;;10361553;28;20058;-67
2021/05/20 20:07:54;;;;;;;4.05;3.50;;;;;;;;;;10362887;28;20063;-66
2021/05/20 20:12:53;;;;;;;4.30;3.90;;;;;;;;;;10359062;28;20083;-67
2021/05/20 20:17:51;;;;;;;6.22;3.35;;;;;;;;;;10349684;28;20161;-67
2021/05/20 20:22:51;;;;;;;3.88;2.80;;;;;;;;;;10359820;28;20055;-67
2021/05/20 20:27:56;;;;;;;3.53;3.07;;;;;;;;;;10362276;28;20048;-67
2021/05/20 20:32:58;;;;;;;4.95;3.35;;;;;;;;;;10362495;28;20071;-67
2021/05/20 20:43:11;;;;;;;4.07;3.78;;;;;;;;;;10360933;28;20086;-67
2021/05/20 20:48:10;;;;;;;4.18;3.83;;;;;;;;;;10360067;28;20078;-67
2021/05/20 20:53:08;;;;;;;9.07;4.07;;;;;;;;;;10361765;28;20047;-68
2021/05/20 20:58:06;;;;;;;4.07;3.58;;;;;;;;;;10360197;28;20210;-66
2021/05/20 21:03:04;;;;;;;5.07;4.68;;;;;;;;;;10360214;28;20421;-67
2021/05/20 21:08:03;;;;;;;5.32;4.85;;;;;;;;;;10361016;28;20044;-66
2021/05/20 21:13:01;;;;;;;6.80;4.22;;;;;;;;;;10360817;28;20040;-66
2021/05/20 21:17:59;;;;;;;5.00;4.60;;;;;;;;;;10360436;28;20048;-67
2021/05/20 21:22:57;;;;;;;5.47;4.15;;;;;;;;;;10360583;28;20064;-64
2021/05/20 21:27:56;;;;;;;6.47;4.03;;;;;;;;;;10359864;28;20079;-67
2021/05/20 21:32:54;;;;;;;5.35;4.35;;;;;;;;;;10359118;28;20059;-66
2021/05/20 21:37:52;;;;;;;5.43;4.07;;;;;;;;;;10359468;28;20056;-66
2021/05/20 21:42:52;;;;;;;6.07;4.70;;;;;;;;;;10358748;28;20060;-67
2021/05/20 21:47:51;;;;;;;7.47;5.13;;;;;;;;;;10359098;28;20051;-67
2021/05/20 21:52:49;;;;;;;5.30;4.90;;;;;;;;;;10359207;28;20072;-67
2021/05/20 21:57:47;;;;;;;9.40;6.15;;;;;;;;;;10360171;28;20051;-66
2021/05/20 22:02:45;;;;;;;7.07;5.57;;;;;;;;;;10358768;28;20424;-66
2021/05/20 22:07:44;;;;;;;6.45;5.60;;;;;;;;;;10358718;28;20035;-66
2021/05/20 22:12:54;;;;;;;6.38;5.72;;;;;;;;;;10356158;28;20079;-66
2021/05/20 22:17:52;;;;;;;9.23;6.05;;;;;;;;;;10355503;28;20079;-68
2021/05/20 22:22:51;;;;;;;6.88;5.90;;;;;;;;;;10354951;28;20070;-67
2021/05/20 22:27:52;;;;;;;7.13;6.10;;;;;;;;;;10328009;28;20079;-67
2021/05/20 22:32:50;;;;;;;7.03;6.32;;;;;;;;;;10357549;28;20071;-67
2021/05/20 22:37:48;;;;;;;6.70;5.97;;;;;;;;;;10357327;28;20055;-68
2021/05/20 22:42:49;;;;;;;7.88;6.45;;;;;;;;;;10357867;28;20060;-67
2021/05/20 22:47:51;;;;;;;7.75;6.43;;;;;;;;;;10355650;28;20087;-67
2021/05/20 22:52:48;;;;;;;9.30;6.57;;;;;;;;;;10356354;28;20508;-67
2021/05/20 22:57:46;;;;;;;7.40;6.70;;;;;;;;;;10357139;28;20052;-68
2021/05/20 23:02:45;;;;;;;7.97;7.20;;;;;;;;;;10355929;28;20052;-67
2021/05/20 23:07:43;;;;;;;8.80;7.85;;;;;;;;;;10357060;28;20501;-67
2021/05/20 23:12:41;;;;;;;7.78;7.07;;;;;;;;;;10355254;28;20095;-67
2021/05/20 23:17:38;;;;;;;8.95;6.93;;;;;;;;;;10356935;28;20048;-67
2021/05/20 23:22:37;;;;;;;7.05;6.32;;;;;;;;;;10357879;28;20051;-67
2021/05/20 23:27:35;;;;;;;6.93;6.32;;;;;;;;;;10355996;28;20515;-67
2021/05/20 23:32:34;;;;;;;7.68;6.93;;;;;;;;;;10356743;28;20539;-67
2021/05/20 23:37:32;;;;;;;7.50;6.60;;;;;;;;;;10363604;28;20058;-67
2021/05/20 23:42:31;;;;;;;7.50;6.80;;;;;;;;;;10362950;28;20084;-67
2021/05/20 23:47:29;;;;;;;9.82;7.10;;;;;;;;;;10365321;28;20044;-67
2021/05/20 23:52:27;;;;;;;7.30;6.57;;;;;;;;;;10363497;28;20067;-67
2021/05/20 23:57:25;;;;;;;7.75;7.05;;;;;;;;;;10364445;28;20040;-67
